createdAt,value
2023-04-03T00:01:21.446Z,8.59
2023-04-03T00:04:09.562Z,8.58
2023-04-03T00:06:42.624Z,8.61
2023-04-03T00:09:11.875Z,8.62
2023-04-03T00:11:43.149Z,8.64
2023-04-03T00:14:11.382Z,8.64
2023-04-03T00:16:58.062Z,8.62
2023-04-03T00:19:26.874Z,8.63
2023-04-03T00:21:55.622Z,8.64
2023-04-03T00:24:24.156Z,8.61
2023-04-03T00:26:59.938Z,8.57
2023-04-03T00:29:29.084Z,8.56
2023-04-03T00:31:57.337Z,8.57
2023-04-03T00:34:27.603Z,8.56
2023-04-03T00:36:58.245Z,8.55
2023-04-03T00:39:27.640Z,8.55
2023-04-03T00:41:56.136Z,8.56
2023-04-03T00:44:36.726Z,8.56
2023-04-03T00:47:07.031Z,8.58
2023-04-03T00:49:38.932Z,8.61
2023-04-03T00:52:08.402Z,8.63
2023-04-03T00:54:37.227Z,8.66
2023-04-03T00:57:05.856Z,8.70
2023-04-03T00:59:37.236Z,8.72
2023-04-03T01:02:05.599Z,8.67
2023-04-03T01:04:53.120Z,8.63
2023-04-03T01:07:35.006Z,8.60
2023-04-03T01:10:10.710Z,8.59
2023-04-03T01:12:59.326Z,8.60
2023-04-03T01:16:02.332Z,8.58
2023-04-03T01:18:59.317Z,8.57
2023-04-03T01:25:12.752Z,8.58
2023-04-03T01:28:06.231Z,8.59
2023-04-03T01:30:55.654Z,8.59
2023-04-03T01:33:30.597Z,8.61
2023-04-03T01:36:02.129Z,8.61
2023-04-03T01:38:34.137Z,8.62
2023-04-03T01:41:04.768Z,8.63
2023-04-03T01:43:39.612Z,8.64
2023-04-03T01:46:10.767Z,8.64
2023-04-03T01:48:48.074Z,8.65
2023-04-03T01:51:22.930Z,8.65
2023-04-03T01:54:00.602Z,8.64
2023-04-03T01:56:45.376Z,8.64
2023-04-03T01:59:36.720Z,8.61
2023-04-03T02:02:32.556Z,8.61
2023-04-03T02:05:26.905Z,8.62
2023-04-03T02:08:28.642Z,8.64
2023-04-03T02:11:30.462Z,8.64
2023-04-03T02:21:46.593Z,8.57
2023-04-03T02:24:35.152Z,8.54
2023-04-03T02:27:37.547Z,8.55
2023-04-03T02:30:31.711Z,8.58
2023-04-03T02:33:10.030Z,8.61
2023-04-03T02:36:11.430Z,8.62
2023-04-03T02:39:18.652Z,8.63
2023-04-03T02:42:12.879Z,8.63
2023-04-03T02:45:02.823Z,8.63
2023-04-03T02:47:54.469Z,8.64
2023-04-03T02:50:48.552Z,8.67
2023-04-03T02:53:35.781Z,8.71
2023-04-03T02:56:24.123Z,8.69
2023-04-03T02:59:10.463Z,8.69
2023-04-03T03:35:17.527Z,8.68
2023-04-03T03:38:25.815Z,8.67
2023-04-03T03:41:08.035Z,8.68
2023-04-03T03:43:40.333Z,8.71
2023-04-03T03:46:12.550Z,8.71
2023-04-03T03:48:41.035Z,8.72
2023-04-03T03:51:13.335Z,8.72
2023-04-03T03:53:41.840Z,8.73
2023-04-03T03:56:15.186Z,8.73
2023-04-03T03:58:44.138Z,8.74
2023-04-03T04:01:12.574Z,8.75
2023-04-03T04:03:45.066Z,8.74
2023-04-03T04:06:15.612Z,8.74
2023-04-03T04:08:46.084Z,8.74
2023-04-03T04:11:14.668Z,8.73
2023-04-03T04:13:43.191Z,8.72
2023-04-03T04:16:12.522Z,8.73
2023-04-03T04:18:41.425Z,8.73
2023-04-03T04:21:10.580Z,8.72
2023-04-03T04:23:40.216Z,8.72
2023-04-03T04:26:08.555Z,8.72
2023-04-03T04:28:39.546Z,8.71
2023-04-03T04:31:08.197Z,8.71
2023-04-03T04:33:38.775Z,8.72
2023-04-03T04:36:08.159Z,8.74
2023-04-03T04:38:43.400Z,8.75
2023-04-03T04:41:11.691Z,8.76
2023-04-03T04:43:40.171Z,8.78
2023-04-03T04:46:10.798Z,8.80
2023-04-03T04:48:43.410Z,8.82
2023-04-03T04:51:13.785Z,8.82
2023-04-03T04:53:43.977Z,8.80
2023-04-03T04:56:16.803Z,8.80
2023-04-03T04:58:45.735Z,8.78
2023-04-03T05:01:14.118Z,8.78
2023-04-03T05:03:49.605Z,8.80
2023-04-03T05:06:18.377Z,8.83
2023-04-03T05:08:47.215Z,8.84
2023-04-03T05:11:21.818Z,8.85
2023-04-03T05:13:53.745Z,8.84
2023-04-03T05:16:23.214Z,8.85
2023-04-03T05:18:52.881Z,8.88
2023-04-03T05:21:24.564Z,8.90
2023-04-03T05:23:53.287Z,8.93
2023-04-03T05:26:22.302Z,8.96
2023-04-03T05:28:51.832Z,8.98
2023-04-03T05:31:21.396Z,9.00
2023-04-03T05:33:50.623Z,9.03
2023-04-03T05:36:20.088Z,9.08
2023-04-03T05:38:51.307Z,9.11
2023-04-03T05:41:22.023Z,9.13
2023-04-03T05:43:51.124Z,9.13
2023-04-03T05:46:20.527Z,9.14
2023-04-03T05:48:51.994Z,9.13
2023-04-03T05:51:27.257Z,9.12
2023-04-03T05:54:01.376Z,9.12
2023-04-03T05:56:31.880Z,9.11
2023-04-03T05:59:00.563Z,9.12
2023-04-03T06:01:29.513Z,9.13
2023-04-03T06:04:00.149Z,9.13
2023-04-03T06:06:44.819Z,9.15
2023-04-03T06:09:13.333Z,9.17
2023-04-03T06:11:43.271Z,9.19
2023-04-03T06:14:11.985Z,9.20
2023-04-03T06:16:41.187Z,9.21
2023-04-03T06:19:09.623Z,9.24
2023-04-03T06:21:40.087Z,9.26
2023-04-03T06:24:11.010Z,9.29
2023-04-03T06:26:39.257Z,9.31
2023-04-03T06:29:08.376Z,9.33
2023-04-03T06:31:40.963Z,9.37
2023-04-03T06:34:09.891Z,9.42
2023-04-03T06:36:38.526Z,9.46
2023-04-03T06:39:08.195Z,9.50
2023-04-03T06:41:37.283Z,9.56
2023-04-03T06:44:06.225Z,9.59
2023-04-03T06:46:34.446Z,9.64
2023-04-03T06:49:08.521Z,9.66
2023-04-03T06:51:47.331Z,9.68
2023-04-03T06:54:21.460Z,9.72
2023-04-03T06:56:50.767Z,9.78
2023-04-03T06:59:19.804Z,9.81
2023-04-03T07:01:48.614Z,9.89
2023-04-03T07:04:17.899Z,10.05
2023-04-03T07:06:46.389Z,10.10
2023-04-03T07:09:15.927Z,10.04
2023-04-03T07:11:45.642Z,9.94
2023-04-03T07:14:13.950Z,9.96
2023-04-03T07:16:42.891Z,9.99
2023-04-03T07:19:14.073Z,10.08
2023-04-03T07:21:43.235Z,10.13
2023-04-03T07:24:16.186Z,10.20
2023-04-03T07:26:46.562Z,10.41
2023-04-03T07:29:15.912Z,10.38
2023-04-03T07:31:46.660Z,10.39
2023-04-03T07:34:14.984Z,10.39
2023-04-03T07:36:43.783Z,10.40
2023-04-03T07:39:12.410Z,10.41
2023-04-03T07:41:40.758Z,10.38
2023-04-03T07:44:13.186Z,10.59
2023-04-03T07:46:42.171Z,10.57
2023-04-03T07:49:10.854Z,10.61
2023-04-03T07:51:39.094Z,10.60
2023-04-03T07:54:09.145Z,10.60
2023-04-03T07:56:37.545Z,10.62
2023-04-03T07:59:09.081Z,10.66
2023-04-03T08:01:37.494Z,10.72
2023-04-03T08:04:08.143Z,10.81
2023-04-03T08:06:46.474Z,10.91
2023-04-03T08:09:19.910Z,10.99
2023-04-03T08:11:48.287Z,11.03
2023-04-03T08:14:18.131Z,11.04
2023-04-03T08:16:47.662Z,11.05
2023-04-03T08:19:25.325Z,11.08
2023-04-03T08:21:55.863Z,11.13
2023-04-03T08:24:24.139Z,11.18
2023-04-03T08:26:52.707Z,11.21
2023-04-03T08:29:21.008Z,11.22
2023-04-03T08:31:51.508Z,11.20
2023-04-03T08:34:20.546Z,11.16
2023-04-03T08:36:52.096Z,11.10
2023-04-03T08:39:23.475Z,11.03
2023-04-03T08:41:59.089Z,11.01
2023-04-03T08:44:35.760Z,10.82
2023-04-03T08:47:27.792Z,10.79
2023-04-03T08:49:58.625Z,10.82
2023-04-03T08:52:34.262Z,10.85
2023-04-03T08:55:16.518Z,10.91
2023-04-03T08:57:46.042Z,10.99
2023-04-03T09:00:22.476Z,11.05
2023-04-03T09:02:52.383Z,11.14
2023-04-03T09:05:40.977Z,11.27
2023-04-03T09:08:23.669Z,11.53
2023-04-03T09:10:56.235Z,11.46
2023-04-03T09:13:32.367Z,11.47
2023-04-03T09:16:01.182Z,11.58
2023-04-03T09:18:40.796Z,11.71
2023-04-03T09:21:18.369Z,11.84
2023-04-03T09:23:51.153Z,11.91
2023-04-03T09:26:40.799Z,12.00
2023-04-03T09:29:09.473Z,12.12
2023-04-03T09:31:41.892Z,12.21
2023-04-03T09:34:19.327Z,12.28
2023-04-03T09:36:52.679Z,12.39
2023-04-03T09:39:25.513Z,12.48
2023-04-03T09:42:04.061Z,12.46
2023-04-03T09:44:38.153Z,12.38
2023-04-03T09:47:35.020Z,12.26
2023-04-03T09:50:30.436Z,12.15
2023-04-03T09:52:58.623Z,12.07
2023-04-03T09:55:31.045Z,12.02
2023-04-03T09:58:04.825Z,12.10
2023-04-03T10:00:38.835Z,12.25
2023-04-03T10:03:37.794Z,12.27
2023-04-03T10:06:14.715Z,12.26
2023-04-03T10:08:44.151Z,12.28
2023-04-03T10:11:14.562Z,12.34
2023-04-03T10:14:00.788Z,12.37
2023-04-03T10:16:38.994Z,12.39
2023-04-03T10:19:33.833Z,12.37
2023-04-03T10:22:08.896Z,12.41
2023-04-03T10:25:15.980Z,12.47
2023-04-03T10:27:56.869Z,12.55
2023-04-03T10:30:53.330Z,12.58
2023-04-03T10:33:28.844Z,12.57
2023-04-03T10:36:16.639Z,12.53
2023-04-03T10:38:47.802Z,12.47
2023-04-03T10:41:28.786Z,12.37
2023-04-03T10:44:26.332Z,12.27
2023-04-03T10:46:57.783Z,12.20
2023-04-03T10:49:40.611Z,12.15
2023-04-03T10:52:40.087Z,12.11
2023-04-03T10:55:23.258Z,12.05
2023-04-03T10:57:52.045Z,12.02
2023-04-03T11:00:27.464Z,11.97
2023-04-03T11:03:07.905Z,11.93
2023-04-03T11:05:43.366Z,11.93
2023-04-03T11:08:34.155Z,11.92
2023-04-03T11:11:08.454Z,11.93
2023-04-03T11:13:48.984Z,11.95
2023-04-03T11:16:25.894Z,11.99
2023-04-03T11:19:13.565Z,12.00
2023-04-03T11:21:50.233Z,12.00
2023-04-03T11:24:23.243Z,12.01
2023-04-03T11:26:51.657Z,12.02
2023-04-03T11:29:35.061Z,12.04
2023-04-03T11:32:53.525Z,12.06
2023-04-03T11:35:21.720Z,12.00
2023-04-03T11:37:52.108Z,11.81
2023-04-03T11:40:24.302Z,11.96
2023-04-03T11:42:55.211Z,11.91
2023-04-03T11:45:33.900Z,11.90
2023-04-03T11:48:24.984Z,11.77
2023-04-03T11:50:53.752Z,11.80
2023-04-03T11:53:35.898Z,11.74
2023-04-03T11:56:31.476Z,11.66
2023-04-03T11:59:11.858Z,11.59
2023-04-03T12:01:58.035Z,11.46
2023-04-03T12:04:27.982Z,11.18
2023-04-03T12:07:19.748Z,11.10
2023-04-03T12:09:47.968Z,11.01
2023-04-03T12:12:37.701Z,10.96
2023-04-03T12:15:24.306Z,10.93
2023-04-03T12:17:53.213Z,10.93
2023-04-03T12:21:06.939Z,10.94
2023-04-03T12:23:37.256Z,10.97
2023-04-03T12:26:23.916Z,10.99
2023-04-03T12:28:55.289Z,10.97
2023-04-03T12:31:25.447Z,10.93
2023-04-03T12:34:12.072Z,10.89
2023-04-03T12:36:52.743Z,10.80
2023-04-03T12:39:28.198Z,10.68
2023-04-03T12:42:25.530Z,10.57
2023-04-03T12:45:11.374Z,10.44
2023-04-03T12:47:43.231Z,10.29
2023-04-03T12:50:28.227Z,10.19
2023-04-03T12:53:35.355Z,10.06
2023-04-03T12:56:25.395Z,9.94
2023-04-03T12:58:55.623Z,9.84
2023-04-03T13:01:27.582Z,9.73
2023-04-03T13:03:59.231Z,9.63
2023-04-03T13:06:29.609Z,9.55
2023-04-03T13:09:00.398Z,9.50
2023-04-03T13:11:34.219Z,9.43
2023-04-03T13:14:07.068Z,9.36
2023-04-03T13:16:38.812Z,9.22
2023-04-03T13:19:07.198Z,8.96
2023-04-03T13:21:35.543Z,8.87
2023-04-03T13:24:14.623Z,8.81
2023-04-03T13:26:43.472Z,8.77
2023-04-03T13:29:32.112Z,8.75
2023-04-03T13:32:03.736Z,8.76
2023-04-03T13:34:40.014Z,8.74
2023-04-03T13:37:09.233Z,8.70
2023-04-03T13:39:39.784Z,8.65
2023-04-03T13:42:24.037Z,8.60
2023-04-03T13:45:19.230Z,8.56
2023-04-03T13:47:48.446Z,8.52
2023-04-03T13:50:26.499Z,8.55
2023-04-03T13:53:11.662Z,8.46
2023-04-03T13:56:02.600Z,8.37
2023-04-03T13:58:32.585Z,8.29
2023-04-03T14:01:12.797Z,8.23
2023-04-03T14:04:02.427Z,8.19
2023-04-03T14:06:31.062Z,8.17
2023-04-03T14:08:59.916Z,8.15
2023-04-03T14:11:30.876Z,8.12
2023-04-03T14:14:01.754Z,8.10
2023-04-03T14:16:34.494Z,8.05
2023-04-03T14:19:03.144Z,7.98
2023-04-03T14:21:31.357Z,7.91
2023-04-03T14:23:59.594Z,7.84
2023-04-03T14:26:30.288Z,7.81
2023-04-03T14:28:59.042Z,7.75
2023-04-03T14:31:27.836Z,7.71
2023-04-03T14:33:57.097Z,7.65
2023-04-03T14:36:27.559Z,7.59
2023-04-03T14:38:57.112Z,7.54
2023-04-03T14:41:27.229Z,7.54
2023-04-03T14:43:55.620Z,7.73
2023-04-03T14:46:26.352Z,7.74
2023-04-03T14:49:15.788Z,7.69
2023-04-03T14:51:58.696Z,7.63
2023-04-03T14:54:28.946Z,7.58
2023-04-03T14:56:58.750Z,7.51
2023-04-03T14:59:27.834Z,7.47
2023-04-03T15:01:56.398Z,7.42
2023-04-03T15:04:26.435Z,7.40
2023-04-03T15:06:55.526Z,7.36
2023-04-03T15:09:25.740Z,7.32
2023-04-03T15:11:54.879Z,7.31
2023-04-03T15:14:35.378Z,7.29
2023-04-03T15:17:19.728Z,7.25
2023-04-03T15:19:48.933Z,7.20
2023-04-03T15:22:18.815Z,7.18
2023-04-03T15:24:47.062Z,7.14
2023-04-03T15:27:16.598Z,7.08
2023-04-03T15:29:45.027Z,7.07
2023-04-03T15:32:14.310Z,7.04
2023-04-03T15:34:42.500Z,7.00
2023-04-03T15:37:13.757Z,6.96
2023-04-03T15:39:41.971Z,6.93
2023-04-03T15:42:13.508Z,6.88
2023-04-03T15:44:42.013Z,6.84
2023-04-03T15:47:10.180Z,6.81
2023-04-03T15:49:39.225Z,6.78
2023-04-03T15:52:07.404Z,6.73
2023-04-03T15:54:36.912Z,6.71
2023-04-03T15:57:05.212Z,6.68
2023-04-03T15:59:35.052Z,6.65
2023-04-03T16:02:04.350Z,6.60
2023-04-03T16:04:34.067Z,6.56
2023-04-03T16:07:03.695Z,6.53
2023-04-03T16:09:33.318Z,6.51
2023-04-03T16:12:01.801Z,6.48
2023-04-03T16:14:31.470Z,6.46
2023-04-03T16:17:01.160Z,6.42
2023-04-03T16:19:30.862Z,6.40
2023-04-03T16:21:59.360Z,6.38
2023-04-03T16:24:27.837Z,6.37
2023-04-03T16:26:58.191Z,6.36
2023-04-03T16:29:26.977Z,6.34
2023-04-03T16:31:55.627Z,6.32
2023-04-03T16:34:24.539Z,6.31
2023-04-03T16:36:53.629Z,6.30
2023-04-03T16:39:21.964Z,6.29
2023-04-03T16:41:50.320Z,6.27
2023-04-03T16:44:18.928Z,6.27
2023-04-03T16:46:48.416Z,6.26
2023-04-03T16:49:17.139Z,6.23
2023-04-03T16:51:46.245Z,6.20
2023-04-03T16:54:14.855Z,6.18
2023-04-03T16:56:43.920Z,6.15
2023-04-03T16:59:12.269Z,6.14
2023-04-03T17:01:40.551Z,6.13
2023-04-03T17:04:09.945Z,6.12
2023-04-03T17:06:39.234Z,6.09
2023-04-03T17:09:07.943Z,6.08
2023-04-03T17:11:37.302Z,6.08
2023-04-03T17:14:06.169Z,6.15
2023-04-03T17:16:35.345Z,6.34
2023-04-03T17:19:04.294Z,6.37
2023-04-03T17:21:33.502Z,6.36
2023-04-03T17:24:09.656Z,6.35
2023-04-03T17:26:39.683Z,6.34
2023-04-03T17:29:08.333Z,6.35
2023-04-03T17:31:37.965Z,6.32
2023-04-03T17:34:06.409Z,6.29
2023-04-03T17:36:38.726Z,6.27
2023-04-03T17:39:07.531Z,6.24
2023-04-03T17:41:36.052Z,6.23
2023-04-03T17:44:04.277Z,6.23
2023-04-03T17:46:34.108Z,6.25
2023-04-03T17:49:04.859Z,6.24
2023-04-03T17:51:34.649Z,6.24
2023-04-03T17:54:03.190Z,6.26
2023-04-03T17:56:31.772Z,6.27
2023-04-03T17:59:00.338Z,6.27
2023-04-03T18:01:30.443Z,6.28
2023-04-03T18:04:00.805Z,6.27
2023-04-03T18:06:32.174Z,6.27
2023-04-03T18:09:08.986Z,6.28
2023-04-03T18:11:37.284Z,6.29
2023-04-03T18:14:05.945Z,6.31
2023-04-03T18:16:36.296Z,6.33
2023-04-03T18:19:22.144Z,6.34
2023-04-03T18:22:06.695Z,6.34
2023-04-03T18:24:35.685Z,6.33
2023-04-03T18:27:10.983Z,6.28
2023-04-03T18:29:40.742Z,6.23
2023-04-03T18:32:10.457Z,6.20
2023-04-03T18:34:38.729Z,6.21
2023-04-03T18:37:07.279Z,6.22
2023-04-03T18:39:36.358Z,6.21
2023-04-03T18:42:10.292Z,6.19
2023-04-03T18:44:39.717Z,6.19
2023-04-03T18:47:10.397Z,6.20
2023-04-03T18:49:39.801Z,6.21
2023-04-03T18:52:08.145Z,6.20
2023-04-03T18:54:37.557Z,6.21
2023-04-03T18:57:07.137Z,6.20
2023-04-03T18:59:38.947Z,6.20
2023-04-03T19:02:08.730Z,6.20
2023-04-03T19:04:38.994Z,6.20
2023-04-03T19:07:11.800Z,6.21
2023-04-03T19:09:40.728Z,6.22
2023-04-03T19:12:08.992Z,6.22
2023-04-03T19:14:37.299Z,6.22
2023-04-03T19:17:08.167Z,6.22
2023-04-03T19:19:38.875Z,6.23
2023-04-03T19:22:08.788Z,6.23
2023-04-03T19:24:37.196Z,6.22
2023-04-03T19:27:05.510Z,6.22
2023-04-03T19:29:34.664Z,6.20
2023-04-03T19:32:02.972Z,6.19
2023-04-03T19:34:33.079Z,6.17
2023-04-03T19:37:02.962Z,6.15
2023-04-03T19:39:35.298Z,6.13
2023-04-03T19:42:05.264Z,6.11
2023-04-03T19:44:35.963Z,6.14
2023-04-03T19:47:07.433Z,6.16
2023-04-03T19:49:35.645Z,6.15
2023-04-03T19:52:04.211Z,6.15
2023-04-03T19:54:32.395Z,6.12
2023-04-03T19:57:00.581Z,6.08
2023-04-03T19:59:29.247Z,6.06
2023-04-03T20:01:57.933Z,6.05
2023-04-03T20:04:26.175Z,6.05
2023-04-03T20:06:54.640Z,6.04
2023-04-03T20:09:23.187Z,6.03
2023-04-03T20:11:54.559Z,6.02
2023-04-03T20:14:23.089Z,6.01
2023-04-03T20:16:51.266Z,6.01
2023-04-03T20:19:20.378Z,6.00
2023-04-03T20:21:50.365Z,5.99
2023-04-03T20:24:21.310Z,5.91
2023-04-03T20:26:49.534Z,5.93
2023-04-03T20:29:17.826Z,5.94
2023-04-03T20:31:47.090Z,5.94
2023-04-03T20:34:16.333Z,5.96
2023-04-03T20:36:49.649Z,5.99
2023-04-03T20:39:24.141Z,6.02
2023-04-03T20:41:52.698Z,6.04
2023-04-03T20:44:26.670Z,6.04
2023-04-03T20:46:58.508Z,6.04
2023-04-03T20:49:26.846Z,6.06
2023-04-03T20:51:55.097Z,6.05
2023-04-03T20:54:25.003Z,6.05
2023-04-03T20:57:14.706Z,6.04
2023-04-03T21:00:05.795Z,6.02
2023-04-03T21:02:46.341Z,6.00
2023-04-03T21:05:16.549Z,5.96
2023-04-03T21:08:24.730Z,5.92
2023-04-03T21:11:33.762Z,5.90
2023-04-03T21:14:54.257Z,5.85
2023-04-03T21:17:23.641Z,5.82
2023-04-03T21:19:54.728Z,5.78
2023-04-03T21:22:23.696Z,5.76
2023-04-03T21:24:52.855Z,5.75
2023-04-03T21:27:28.737Z,5.75
2023-04-03T21:30:07.991Z,5.78
2023-04-03T21:33:01.681Z,5.81
2023-04-03T21:36:05.531Z,5.86
2023-04-03T21:39:09.530Z,5.87
2023-04-03T21:42:10.397Z,5.88
2023-04-03T21:44:53.603Z,5.90
2023-04-03T21:47:44.053Z,5.88
2023-04-03T21:50:43.051Z,5.86
2023-04-03T22:39:34.579Z,5.67
2023-04-03T22:42:04.861Z,5.62
2023-04-03T22:44:36.739Z,5.59
2023-04-03T22:47:05.428Z,5.56
2023-04-03T22:49:33.760Z,5.54
2023-04-03T22:52:01.917Z,5.50
2023-04-03T22:54:30.292Z,5.47
2023-04-03T22:56:58.772Z,5.46
2023-04-03T22:59:27.276Z,5.47
2023-04-03T23:01:55.699Z,5.46
2023-04-03T23:04:25.447Z,5.45
2023-04-03T23:06:54.192Z,5.47
2023-04-03T23:09:22.498Z,5.45
2023-04-03T23:11:50.693Z,5.42
2023-04-03T23:14:22.392Z,5.40
2023-04-03T23:16:51.805Z,5.38
2023-04-03T23:19:19.984Z,5.35
2023-04-03T23:21:49.588Z,5.33
2023-04-03T23:24:18.058Z,5.31
2023-04-03T23:26:48.983Z,5.30
2023-04-03T23:29:17.376Z,5.29
2023-04-03T23:31:45.573Z,5.27
2023-04-03T23:34:13.763Z,5.25
2023-04-03T23:36:42.537Z,5.25
2023-04-03T23:39:14.522Z,5.24
2023-04-03T23:41:44.559Z,5.23
2023-04-03T23:44:12.835Z,5.22
2023-04-03T23:46:42.387Z,5.21
2023-04-03T23:49:11.268Z,5.21
2023-04-03T23:51:41.493Z,5.22
2023-04-03T23:54:09.780Z,5.22
2023-04-03T23:56:40.603Z,5.21
2023-04-03T23:59:09.762Z,5.20
